ADDS METAR Data INFO
IDs: Format: Raw Decoded Include TAF

Data at: 2357 UTC 16 Oct 2017

KRPH 162330Z AUTO 00000KT 10SM CLR 20/04 A3027 RMK AO2 T02020043
KRPH 162310Z AUTO 00000KT 10SM CLR 21/04 A3027 RMK AO2 T02100038
KRPH 162250Z AUTO 00000KT 10SM CLR 22/04 A3027 RMK AO2 T02150036
KRPH 162230Z AUTO 00000KT 10SM CLR 22/03 A3028 RMK AO2 T02210033
KRPH 162210Z AUTO 00000KT 10SM CLR 22/03 A3028 RMK AO2 T02210029
KRPH 162150Z AUTO 00000KT 10SM CLR 22/03 A3028 RMK AO2 T02210032
KRPH 162130Z AUTO 31003KT 10SM CLR 23/04 A3028 RMK AO2 T02260039
KRPH 162110Z AUTO 00000KT 10SM 22/03 A3029 RMK AO2 T02210030
KRPH 162050Z AUTO 00000KT 10SM 22/04 A3030 RMK AO2 T02200035
KRPH 162030Z AUTO 32003KT 10SM 22/04 A3030 RMK AO2 T02180038
KRPH 162010Z AUTO 00000KT 10SM 22/04 A3032 RMK AO2 T02160036
KRPH 161950Z AUTO 31003KT 10SM 21/03 A3032 RMK AO2 T02140033
KRPH 161930Z AUTO 35003KT 10SM 21/03 A3033 RMK AO2 T02130033
KRPH 161910Z AUTO 00000KT 10SM 21/03 A3035 RMK AO2 T02060032
KRPH 161850Z AUTO 00000KT 10SM 21/03 A3036 RMK AO2 T02070029
KRPH 161830Z AUTO 04005KT 10SM 20/04 A3038 RMK AO2 T02030035
KRPH 161810Z AUTO 04004KT 10SM 20/03 A3040 RMK AO2 T02000031
KRPH 161750Z AUTO 00000KT 10SM 20/02 A3041 RMK AO2 T01970020 10197 20030
KRPH 161730Z AUTO 00000KT 10SM 19/02 A3042 RMK AO2 T01910021
KRPH 161710Z AUTO 36005KT 10SM 19/02 A3043 RMK AO2 T01900024
KRPH 161650Z AUTO 04005KT 10SM 18/02 A3043 RMK AO2 T01830024
KRPH 161630Z AUTO 07005KT 10SM 18/03 A3044 RMK AO2 T01800030
KRPH 161610Z AUTO 07006KT 10SM 17/03 A3044 RMK AO2 T01740029
KRPH 161550Z AUTO 00000KT 10SM 16/05 A3044 RMK AO2 T01630054
KRPH 161530Z AUTO 01003KT 10SM 15/06 A3044 RMK AO2 T01460064
KRPH 161510Z AUTO 00000KT 10SM 13/07 A3045 RMK AO2 T01310066
KRPH 161450Z AUTO 36003KT 10SM 12/07 A3045 RMK AO2 T01210067
KRPH 161430Z AUTO 00000KT 10SM 11/07 A3045 RMK AO2 T01090071
KRPH 161410Z AUTO 35003KT 10SM 09/08 A3045 RMK AO2 T00940076
KRPH 161350Z AUTO 00000KT 10SM 08/08 A3044 RMK AO2 T00800080
KRPH 161330Z AUTO 00000KT 10SM 06/ A3044 RMK AO2 T0058
KRPH 161310Z AUTO 00000KT 10SM 04/ A3044 RMK AO2 T0044
KRPH 161250Z AUTO 00000KT 10SM 03/ A3043 RMK AO2 T0030
KRPH 161230Z AUTO 00000KT 10SM 04/ A3043 RMK AO2 T0040
KRPH 161210Z AUTO 00000KT 10SM 03/ A3043 RMK AO2 T0030
KRPH 161150Z AUTO 00000KT 10SM 03/ A3043 RMK AO2 T0032 10097 20032
KRPH 161130Z AUTO 00000KT 10SM 04/ A3042 RMK AO2 T0035
KRPH 161110Z AUTO 00000KT 10SM 04/ A3042 RMK AO2 T0037
KRPH 161050Z AUTO 00000KT 10SM 04/ A3041 RMK AO2 T0039
KRPH 161030Z AUTO 00000KT 10SM 04/ A3041 RMK AO2 T0043
KRPH 161010Z AUTO 00000KT 10SM 04/ A3040 RMK AO2 T0040
KRPH 160950Z AUTO 00000KT 10SM 04/ A3040 RMK AO2 T0040
KRPH 160930Z AUTO 00000KT 10SM 04/ A3040 RMK AO2 T0044
KRPH 160910Z AUTO 00000KT 10SM 05/ A3040 RMK AO2 T0046
KRPH 160850Z AUTO 00000KT 10SM 05/05 A3040 RMK AO2 T00510051
KRPH 160830Z AUTO 00000KT 10SM 06/06 A3040 RMK AO2 T00560056
KRPH 160810Z AUTO 00000KT 10SM 05/ A3040 RMK AO2 T0052
KRPH 160750Z AUTO 00000KT 10SM 06/05 A3040 RMK AO2 T00600051
KRPH 160730Z AUTO 00000KT 10SM 08/05 A3040 RMK AO2 T00780046
KRPH 160710Z AUTO 00000KT 10SM 07/05 A3040 RMK AO2 T00730047
KRPH 160650Z AUTO 36003KT 10SM 09/05 A3039 RMK AO2 T00870046
KRPH 160630Z AUTO 36003KT 10SM 09/05 A3040 RMK AO2 T00900047
KRPH 160610Z AUTO 36004KT 10SM 09/05 A3039 RMK AO2 T00920050
KRPH 160550Z AUTO 00000KT 10SM 10/05 A3040 RMK AO2 T00970051 10162 20095 402470095
KRPH 160530Z AUTO 00000KT 10SM 10/05 A3040 RMK AO2 T00960053
KRPH 160510Z AUTO 00000KT 10SM 10/05 A3040 RMK AO2 T01020054
KRPH 160450Z AUTO 01003KT 10SM 10/05 A3039 RMK AO2 T01030053
KRPH 160430Z AUTO 00000KT 10SM 11/05 A3040 RMK AO2 T01070053
KRPH 160410Z AUTO 02004KT 10SM 11/05 A3039 RMK AO2 T01100053
KRPH 160350Z AUTO 01003KT 10SM 11/06 A3039 RMK AO2 T01090058
KRPH 160330Z AUTO 01003KT 10SM 11/06 A3039 RMK AO2 T01140058
KRPH 160310Z AUTO 00000KT 10SM 12/06 A3038 RMK AO2 T01160062
KRPH 160250Z AUTO 01004KT 10SM 11/07 A3038 RMK AO2 T01130071
KRPH 160230Z AUTO 36003KT 10SM 12/07 A3038 RMK AO2 T01160067
KRPH 160210Z AUTO 00000KT 10SM 12/07 A3037 RMK AO2 T01150065
KRPH 160150Z AUTO 00000KT 7SM 13/06 A3037 RMK AO2 T01250061
KRPH 160130Z AUTO 00000KT 10SM 14/06 A3036 RMK AO2 T01360055
KRPH 160110Z AUTO 00000KT 10SM 14/06 A3035 RMK AO2 T01390059
KRPH 160050Z AUTO 00000KT 10SM 14/06 A3035 RMK AO2 T01410058
KRPH 160030Z AUTO 00000KT 10SM 15/05 A3034 RMK AO2 T01480054
KRPH 160010Z AUTO 35004KT 10SM 16/05 A3034 RMK AO2 T01560050
KRPH 152350Z AUTO 34004KT 10SM 17/05 A3033 RMK AO2 T01660046 10208 20166
KRPH 152330Z AUTO 35005KT 10SM 18/04 A3033 RMK AO2 T01750038
KRPH 152310Z AUTO 35007KT 10SM 18/03 A3033 RMK AO2 T01830033
KRPH 152250Z AUTO 36009KT 10SM 19/04 A3032 RMK AO2 T01900039
KRPH 152230Z AUTO 36012G18KT 10SM 19/03 A3031 RMK AO2 T01920030
KRPH 152210Z AUTO 36012G16KT 10SM 20/03 A3031 RMK AO2 T01980033
KRPH 152150Z AUTO 36011G18KT 10SM 20/03 A3032 RMK AO2 T01970034
KRPH 152130Z AUTO 35011G18KT 10SM 20/04 A3032 RMK AO2 T02000039
KRPH 152110Z AUTO 35012G21KT 10SM 21/04 A3032 RMK AO2 T02070040
KRPH 152050Z AUTO 36016G20KT 10SM 21/04 A3032 RMK AO2 T02050039
KRPH 152030Z AUTO 34012G19KT 320V020 10SM 21/05 A3033 RMK AO2 T02050047
KRPH 152010Z AUTO 36011G19KT 10SM 19/05 A3033 RMK AO2 T01930046
KRPH 151950Z AUTO 34013G20KT 10SM 20/05 A3034 RMK AO2 T02040049
KRPH 151930Z AUTO 34013G21KT 10SM 19/05 A3034 RMK AO2 T01940053
KRPH 151915Z AUTO 34014G19KT 10SM 20/06 A3034 RMK AO2 T02010057
KRPH 151850Z AUTO 34015G22KT 10SM 20/06 A3035 RMK AO2 T01960061
KRPH 151830Z AUTO 34015G23KT 10SM 19/07 A3036 RMK AO2 T01930067
KRPH 151810Z AUTO 34014G19KT 10SM 19/07 A3037 RMK AO2 T01900069
KRPH 151750Z AUTO 36013G18KT 10SM 17/07 A3038 RMK AO2 T01660070 10167 20122
KRPH 151730Z AUTO 35010G17KT 10SM 17/07 A3038 RMK AO2 T01670074
KRPH 151710Z AUTO 36010G17KT 10SM 15/07 A3038 RMK AO2 T01530070
KRPH 151650Z AUTO 36012G19KT 10SM 16/07 A3038 RMK AO2 T01570071
KRPH 151630Z AUTO 01011G17KT 10SM 16/08 A3037 RMK AO2 T01570075
KRPH 151610Z AUTO 35012G20KT 10SM 13/07 A3037 RMK AO2 T01330073
KRPH 151550Z AUTO 36012G21KT 10SM 14/08 A3036 RMK AO2 T01360075
KRPH 151530Z AUTO 35011G21KT 10SM 14/08 A3037 RMK AO2 T01400075
KRPH 151509Z AUTO 35008G21KT 10SM 13/08 A3035 RMK AO2
KRPH 151450Z AUTO 34011G22KT 10SM 12/07 A3034 RMK AO2 T01220073
KRPH 151430Z AUTO 35017G22KT 10SM 12/07 A3033 RMK AO2 T01240072
KRPH 151420Z AUTO 35016G22KT 10SM 13/07 A3033 RMK AO2 T01250073
KRPH 151350Z AUTO 34011G23KT 10SM 12/07 A3033 RMK AO2 T01240072
KRPH 151330Z AUTO 35015G19KT 10SM 13/08 A3032 RMK AO2 T01250076
KRPH 151310Z AUTO 35011G18KT 10SM 12/08 A3030 RMK AO2 T01230079
KRPH 151250Z AUTO 35010G18KT 10SM 13/08 A3030 RMK AO2 T01250081
KRPH 151230Z AUTO 34013G17KT 10SM 13/08 A3029 RMK AO2 T01280084
KRPH 151210Z AUTO 35012G24KT 10SM 13/08 A3028 RMK AO2 T01330081